createdAt,value
2023-02-02T00:02:03.061Z,7.30
2023-02-02T00:04:35.969Z,7.27
2023-02-02T00:07:05.715Z,7.27
2023-02-02T00:09:32.914Z,7.29
2023-02-02T00:12:00.852Z,7.30
2023-02-02T00:14:28.159Z,7.33
2023-02-02T00:16:56.189Z,7.35
2023-02-02T00:19:26.677Z,7.37
2023-02-02T00:21:54.481Z,7.37
2023-02-02T00:24:21.742Z,7.35
2023-02-02T00:26:54.323Z,7.35
2023-02-02T00:29:23.923Z,7.32
2023-02-02T00:31:51.313Z,7.27
2023-02-02T00:34:21.658Z,7.28
2023-02-02T00:36:49.183Z,7.27
2023-02-02T00:39:21.322Z,7.26
2023-02-02T00:41:48.372Z,7.19
2023-02-02T00:44:33.312Z,7.19
2023-02-02T00:47:00.018Z,7.19
2023-02-02T00:49:26.678Z,7.19
2023-02-02T00:51:53.476Z,7.14
2023-02-02T00:54:20.133Z,7.11
2023-02-02T00:59:15.761Z,7.13
2023-02-02T01:01:42.410Z,7.11
2023-02-02T01:04:09.091Z,7.11
2023-02-02T01:06:35.792Z,7.12
2023-02-02T01:09:03.590Z,7.09
2023-02-02T01:11:31.094Z,7.05
2023-02-02T01:13:58.234Z,7.06
2023-02-02T01:16:24.994Z,7.03
2023-02-02T01:18:52.342Z,7.00
2023-02-02T01:21:19.395Z,7.00
2023-02-02T01:23:45.947Z,7.02
2023-02-02T01:26:14.043Z,7.05
2023-02-02T01:28:41.602Z,7.06
2023-02-02T01:31:11.263Z,7.10
2023-02-02T01:33:38.041Z,7.11
2023-02-02T01:36:07.618Z,7.14
2023-02-02T01:38:34.863Z,7.12
2023-02-02T01:41:02.063Z,7.15
2023-02-02T01:43:52.838Z,7.15
2023-02-02T01:46:33.767Z,7.12
2023-02-02T01:49:16.666Z,7.11
2023-02-02T01:51:54.957Z,7.10
2023-02-02T01:54:36.114Z,7.08
2023-02-02T01:57:17.779Z,7.09
2023-02-02T01:59:47.617Z,7.10
2023-02-02T02:02:14.717Z,7.08
2023-02-02T02:04:42.644Z,7.10
2023-02-02T02:07:10.606Z,7.11
2023-02-02T02:09:37.190Z,7.15
2023-02-02T02:12:04.002Z,7.19
2023-02-02T02:14:49.146Z,7.18
2023-02-02T02:17:37.940Z,7.19
2023-02-02T02:20:50.499Z,7.19
2023-02-02T02:24:00.135Z,7.21
2023-02-02T02:26:51.626Z,7.20
2023-02-02T02:29:48.144Z,7.20
2023-02-02T02:32:43.802Z,7.21
2023-02-02T02:35:33.304Z,7.17
2023-02-02T02:38:15.047Z,7.17
2023-02-02T02:40:47.534Z,7.14
2023-02-02T02:43:23.395Z,7.15
2023-02-02T02:45:50.776Z,7.17
2023-02-02T02:48:17.647Z,7.18
2023-02-02T02:50:46.853Z,7.18
2023-02-02T02:53:19.031Z,7.19
2023-02-02T02:56:11.158Z,7.14
2023-02-02T02:58:47.896Z,7.09
2023-02-02T03:01:26.258Z,7.05
2023-02-02T03:04:06.188Z,7.03
2023-02-02T03:06:46.766Z,7.07
2023-02-02T03:09:19.889Z,7.08
2023-02-02T03:11:46.549Z,7.06
2023-02-02T03:14:13.319Z,7.07
2023-02-02T03:16:40.168Z,7.07
2023-02-02T03:19:08.245Z,7.09
2023-02-02T03:21:35.923Z,7.12
2023-02-02T03:24:02.511Z,7.10
2023-02-02T03:26:29.681Z,7.09
2023-02-02T03:28:57.831Z,7.10
2023-02-02T03:31:29.696Z,7.11
2023-02-02T03:33:56.839Z,7.11
2023-02-02T03:36:23.727Z,7.12
2023-02-02T03:38:50.268Z,7.16
2023-02-02T03:41:16.862Z,7.13
2023-02-02T03:43:43.453Z,7.15
2023-02-02T03:46:10.129Z,7.17
2023-02-02T03:48:38.290Z,7.19
2023-02-02T03:51:13.788Z,7.17
2023-02-02T03:53:44.412Z,7.19
2023-02-02T03:56:11.373Z,7.16
2023-02-02T03:58:38.034Z,7.14
2023-02-02T04:01:07.335Z,7.17
2023-02-02T04:03:34.287Z,7.18
2023-02-02T04:06:01.430Z,7.16
2023-02-02T04:08:28.831Z,7.17
2023-02-02T04:10:57.863Z,7.17
2023-02-02T04:13:24.516Z,7.19
2023-02-02T04:16:01.011Z,7.22
2023-02-02T04:18:28.740Z,7.23
2023-02-02T04:21:00.108Z,7.23
2023-02-02T04:23:27.833Z,7.21
2023-02-02T04:25:54.941Z,7.23
2023-02-02T04:28:22.659Z,7.22
2023-02-02T04:30:50.252Z,7.25
2023-02-02T04:33:17.121Z,7.23
2023-02-02T04:35:44.205Z,7.23
2023-02-02T04:38:10.877Z,7.26
2023-02-02T04:40:45.770Z,7.26
2023-02-02T04:43:12.850Z,7.25
2023-02-02T04:45:40.005Z,7.20
2023-02-02T04:48:06.782Z,7.21
2023-02-02T04:50:34.086Z,7.21
2023-02-02T04:53:00.709Z,7.19
2023-02-02T04:55:27.483Z,7.18
2023-02-02T04:57:54.177Z,7.21
2023-02-02T05:00:20.967Z,7.23
2023-02-02T05:02:47.619Z,7.20
2023-02-02T05:05:15.145Z,7.21
2023-02-02T05:07:41.998Z,7.18
2023-02-02T05:10:10.448Z,7.21
2023-02-02T05:12:37.137Z,7.26
2023-02-02T05:15:05.656Z,7.25
2023-02-02T05:17:32.938Z,7.25
2023-02-02T05:19:59.485Z,7.27
2023-02-02T05:22:26.110Z,7.26
2023-02-02T05:24:52.644Z,7.27
2023-02-02T05:27:19.354Z,7.28
2023-02-02T05:29:47.240Z,7.27
2023-02-02T05:32:13.704Z,7.26
2023-02-02T05:34:40.181Z,7.28
2023-02-02T05:37:06.693Z,7.24
2023-02-02T05:39:33.293Z,7.29
2023-02-02T05:42:00.152Z,7.29
2023-02-02T05:44:26.802Z,7.26
2023-02-02T05:46:53.324Z,7.29
2023-02-02T05:49:19.808Z,7.29
2023-02-02T05:51:49.379Z,7.30
2023-02-02T05:54:20.353Z,7.30
2023-02-02T05:56:52.231Z,7.30
2023-02-02T05:59:19.499Z,7.29
2023-02-02T06:01:47.088Z,7.28
2023-02-02T06:04:14.837Z,7.30
2023-02-02T06:06:42.222Z,7.34
2023-02-02T06:09:08.932Z,7.38
2023-02-02T06:11:35.726Z,7.36
2023-02-02T06:14:02.826Z,7.38
2023-02-02T06:16:29.325Z,7.39
2023-02-02T06:18:56.063Z,7.39
2023-02-02T06:21:25.420Z,7.38
2023-02-02T06:23:52.290Z,7.40
2023-02-02T06:26:19.432Z,7.41
2023-02-02T06:28:50.008Z,7.42
2023-02-02T06:31:19.411Z,7.40
2023-02-02T06:33:53.622Z,7.40
2023-02-02T06:36:20.547Z,7.39
2023-02-02T06:38:51.452Z,7.38
2023-02-02T06:41:18.866Z,7.42
2023-02-02T06:43:45.354Z,7.40
2023-02-02T06:46:12.222Z,7.38
2023-02-02T06:48:38.774Z,7.38
2023-02-02T06:51:05.655Z,7.39
2023-02-02T06:53:33.068Z,7.39
2023-02-02T06:56:01.937Z,7.40
2023-02-02T06:58:29.312Z,7.42
2023-02-02T07:00:55.952Z,7.41
2023-02-02T07:03:22.641Z,7.43
2023-02-02T07:05:49.540Z,7.42
2023-02-02T07:08:16.362Z,7.43
2023-02-02T07:11:09.505Z,7.42
2023-02-02T07:13:31.095Z,7.44
2023-02-02T07:15:58.394Z,7.46
2023-02-02T07:18:25.032Z,7.46
2023-02-02T07:20:51.573Z,7.45
2023-02-02T07:23:18.154Z,7.45
2023-02-02T07:25:44.809Z,7.44
2023-02-02T07:28:11.280Z,7.41
2023-02-02T07:30:37.852Z,7.42
2023-02-02T07:33:04.387Z,7.41
2023-02-02T07:35:31.187Z,7.41
2023-02-02T07:37:57.843Z,7.42
2023-02-02T07:40:24.384Z,7.41
2023-02-02T07:42:50.935Z,7.45
2023-02-02T07:45:27.736Z,7.48
2023-02-02T07:47:58.362Z,7.48
2023-02-02T07:50:25.479Z,7.47
2023-02-02T07:52:52.760Z,7.50
2023-02-02T07:55:20.279Z,7.52
2023-02-02T07:57:46.814Z,7.52
2023-02-02T08:00:13.924Z,7.50
2023-02-02T08:02:40.506Z,7.47
2023-02-02T08:05:07.575Z,7.43
2023-02-02T08:07:35.322Z,7.43
2023-02-02T08:10:02.522Z,7.47
2023-02-02T08:12:29.050Z,7.44
2023-02-02T08:14:55.557Z,7.43
2023-02-02T08:17:23.596Z,7.45
2023-02-02T08:19:50.717Z,7.45
2023-02-02T08:22:18.849Z,7.44
2023-02-02T08:24:46.858Z,7.43
2023-02-02T08:27:13.525Z,7.48
2023-02-02T08:29:39.997Z,7.44
2023-02-02T08:32:06.993Z,7.46
2023-02-02T08:34:36.866Z,7.48
2023-02-02T08:37:04.011Z,7.56
2023-02-02T09:02:18.795Z,7.89
2023-02-02T09:04:47.037Z,7.89
2023-02-02T09:07:13.514Z,7.83
2023-02-02T09:09:39.983Z,7.87
2023-02-02T09:12:06.673Z,7.89
2023-02-02T09:14:33.338Z,7.80
2023-02-02T09:16:59.958Z,7.85
2023-02-02T09:19:26.537Z,7.87
2023-02-02T09:21:53.056Z,7.87
2023-02-02T09:24:19.583Z,7.85
2023-02-02T09:26:46.222Z,7.88
2023-02-02T09:34:20.198Z,7.81
2023-02-02T09:36:47.471Z,7.82
2023-02-02T09:39:15.130Z,7.88
2023-02-02T09:41:55.926Z,7.93
2023-02-02T09:44:37.518Z,7.92
2023-02-02T09:47:19.549Z,7.90
2023-02-02T09:50:31.710Z,7.94
2023-02-02T09:53:19.262Z,7.94
2023-02-02T09:55:50.135Z,7.97
2023-02-02T09:58:25.173Z,8.00
2023-02-02T10:01:04.549Z,8.00
2023-02-02T10:04:08.502Z,8.00
2023-02-02T10:06:37.841Z,7.90
2023-02-02T10:09:10.403Z,7.86
2023-02-02T10:11:53.114Z,7.85
2023-02-02T10:14:33.312Z,7.82
2023-02-02T10:17:09.349Z,7.82
2023-02-02T10:19:36.742Z,7.86
2023-02-02T10:22:06.495Z,7.84
2023-02-02T10:24:35.846Z,7.84
2023-02-02T10:27:06.093Z,7.81
2023-02-02T10:29:57.595Z,7.83
2023-02-02T10:32:28.533Z,7.86
2023-02-02T10:35:14.619Z,7.89
2023-02-02T10:37:51.509Z,7.98
2023-02-02T10:40:57.435Z,8.02
2023-02-02T10:43:48.097Z,8.01
2023-02-02T10:46:36.229Z,8.01
2023-02-02T10:49:17.016Z,8.01
2023-02-02T10:51:55.301Z,8.01
2023-02-02T10:54:29.907Z,8.02
2023-02-02T10:57:00.759Z,8.03
2023-02-02T10:59:33.576Z,7.99
2023-02-02T11:02:11.727Z,8.02
2023-02-02T11:05:04.436Z,8.02
2023-02-02T11:07:31.637Z,8.00
2023-02-02T11:09:58.122Z,7.98
2023-02-02T11:12:50.418Z,7.99
2023-02-02T11:15:25.500Z,8.00
2023-02-02T11:17:52.111Z,8.01
2023-02-02T11:20:33.598Z,8.02
2023-02-02T11:23:02.957Z,8.00
2023-02-02T11:25:39.695Z,8.02
2023-02-02T11:28:19.852Z,8.03
2023-02-02T11:30:50.465Z,8.05
2023-02-02T11:33:26.456Z,8.09
2023-02-02T11:36:18.422Z,8.10
2023-02-02T11:38:44.953Z,8.06
2023-02-02T11:41:13.849Z,8.07
2023-02-02T11:43:49.195Z,8.02
2023-02-02T11:46:20.823Z,8.04
2023-02-02T11:48:56.402Z,8.08
2023-02-02T11:51:26.292Z,8.10
2023-02-02T11:54:15.720Z,8.11
2023-02-02T11:56:48.439Z,8.13
2023-02-02T11:59:26.854Z,8.10
2023-02-02T12:02:19.802Z,8.08
2023-02-02T12:04:49.360Z,8.10
2023-02-02T12:07:28.215Z,8.12
2023-02-02T12:10:00.753Z,8.10
2023-02-02T12:12:30.154Z,8.12
2023-02-02T12:15:20.060Z,8.13
2023-02-02T12:17:48.546Z,8.10
2023-02-02T12:20:33.728Z,8.13
2023-02-02T12:23:21.761Z,8.13
2023-02-02T12:26:06.205Z,8.16
2023-02-02T12:29:03.880Z,8.14
2023-02-02T12:32:10.044Z,8.14
2023-02-02T12:35:06.769Z,8.11
2023-02-02T12:38:05.434Z,8.11
2023-02-02T12:41:01.082Z,8.09
2023-02-02T12:43:33.865Z,8.10
2023-02-02T12:46:18.817Z,8.11
2023-02-02T12:49:07.222Z,8.14
2023-02-02T12:51:50.772Z,8.14
2023-02-02T12:54:54.794Z,8.17
2023-02-02T12:57:25.871Z,8.20
2023-02-02T13:00:10.636Z,8.15
2023-02-02T13:03:09.265Z,8.13
2023-02-02T13:06:10.656Z,8.12
2023-02-02T13:08:55.579Z,8.11
2023-02-02T13:11:38.397Z,8.08
2023-02-02T13:14:26.392Z,8.03
2023-02-02T13:17:00.938Z,8.02
2023-02-02T13:19:45.134Z,8.05
2023-02-02T13:22:24.177Z,8.04
2023-02-02T13:24:55.565Z,8.03
2023-02-02T13:27:23.921Z,8.01
2023-02-02T13:29:56.312Z,8.03
2023-02-02T13:32:38.264Z,8.02
2023-02-02T13:35:13.562Z,8.00
2023-02-02T13:37:46.505Z,8.02
2023-02-02T13:40:42.184Z,8.01
2023-02-02T13:43:12.738Z,8.01
2023-02-02T13:45:48.862Z,8.02
2023-02-02T13:48:24.420Z,8.06
2023-02-02T13:51:39.184Z,8.01
2023-02-02T13:54:44.781Z,8.02
2023-02-02T13:57:32.855Z,7.98
2023-02-02T14:00:02.205Z,7.96
2023-02-02T14:02:48.893Z,7.94
2023-02-02T14:05:21.443Z,7.94
2023-02-02T14:07:48.667Z,7.99
2023-02-02T14:10:28.867Z,7.98
2023-02-02T14:12:56.229Z,7.99
2023-02-02T14:15:44.142Z,8.01
2023-02-02T14:18:10.708Z,7.99
2023-02-02T14:20:46.440Z,7.95
2023-02-02T14:23:51.192Z,7.97
2023-02-02T14:26:39.239Z,7.96
2023-02-02T14:29:31.844Z,7.93
2023-02-02T14:32:04.699Z,7.93
2023-02-02T14:34:39.493Z,7.96
2023-02-02T14:37:14.331Z,7.93
2023-02-02T14:39:55.808Z,7.96
2023-02-02T14:43:15.357Z,7.96
2023-02-02T14:45:43.641Z,7.94
2023-02-02T14:48:12.797Z,7.93
2023-02-02T14:50:39.590Z,7.96
2023-02-02T14:53:31.752Z,7.96
2023-02-02T14:56:01.058Z,7.97
2023-02-02T14:58:38.678Z,8.00
2023-02-02T15:01:08.840Z,7.96
2023-02-02T15:03:38.336Z,7.99
2023-02-02T15:06:14.862Z,8.01
2023-02-02T15:08:41.405Z,8.02
2023-02-02T15:11:27.894Z,8.09
2023-02-02T15:13:59.405Z,8.10
2023-02-02T15:16:31.730Z,8.10
2023-02-02T15:19:06.808Z,8.11
2023-02-02T15:21:37.978Z,8.10
2023-02-02T15:24:06.214Z,8.10
2023-02-02T15:26:42.900Z,8.11
2023-02-02T15:29:52.679Z,8.10
2023-02-02T15:32:24.556Z,8.08
2023-02-02T15:34:59.556Z,8.04
2023-02-02T15:37:40.280Z,8.02
2023-02-02T15:40:18.483Z,7.97
2023-02-02T15:42:52.925Z,7.98
2023-02-02T15:46:01.261Z,7.96
2023-02-02T15:48:30.477Z,7.94
2023-02-02T15:51:00.064Z,7.88
2023-02-02T15:53:31.953Z,7.87
2023-02-02T15:55:58.940Z,7.79
2023-02-02T15:58:38.998Z,7.79
2023-02-02T16:01:16.022Z,7.82
2023-02-02T16:04:16.354Z,7.81
2023-02-02T16:06:44.441Z,7.88
2023-02-02T16:09:24.064Z,7.80
2023-02-02T16:11:51.717Z,7.79
2023-02-02T16:14:18.543Z,7.77
2023-02-02T16:16:47.589Z,7.82
2023-02-02T16:19:26.198Z,7.81
2023-02-02T16:22:03.051Z,7.79
2023-02-02T16:24:36.357Z,7.78
2023-02-02T16:27:14.695Z,7.75
2023-02-02T16:29:42.233Z,7.79
2023-02-02T16:32:33.419Z,7.75
2023-02-02T16:35:05.821Z,7.74
2023-02-02T16:37:36.439Z,7.77
2023-02-02T16:40:30.126Z,7.76
2023-02-02T16:43:27.290Z,7.76
2023-02-02T16:45:56.786Z,7.77
2023-02-02T16:48:34.307Z,7.80
2023-02-02T16:51:34.116Z,7.78
2023-02-02T16:54:06.764Z,7.78
2023-02-02T16:56:38.782Z,7.75
2023-02-02T16:59:20.208Z,7.74
2023-02-02T17:01:50.413Z,7.77
2023-02-02T17:04:23.275Z,7.74
2023-02-02T17:06:53.192Z,7.74
2023-02-02T17:09:38.027Z,7.77
2023-02-02T17:12:32.676Z,7.77
2023-02-02T17:15:06.070Z,7.79
2023-02-02T17:17:32.586Z,7.79
2023-02-02T17:19:59.052Z,7.78
2023-02-02T17:22:28.042Z,7.78
2023-02-02T17:24:54.626Z,7.76
2023-02-02T17:27:33.758Z,7.70
2023-02-02T17:30:02.663Z,7.69
2023-02-02T17:32:29.138Z,7.69
2023-02-02T17:34:55.919Z,7.74
2023-02-02T17:37:22.769Z,7.73
2023-02-02T17:39:50.830Z,7.71
2023-02-02T17:42:27.340Z,7.72
2023-02-02T17:44:54.393Z,7.74
2023-02-02T17:47:21.021Z,7.71
2023-02-02T17:49:47.533Z,7.72
2023-02-02T17:52:14.085Z,7.75
2023-02-02T17:54:40.650Z,7.73
2023-02-02T17:57:07.151Z,7.74
2023-02-02T17:59:33.725Z,7.76
2023-02-02T18:02:01.353Z,7.71
2023-02-02T18:04:28.108Z,7.72
2023-02-02T18:06:54.628Z,7.71
2023-02-02T18:09:23.327Z,7.71
2023-02-02T18:11:49.975Z,7.71
2023-02-02T18:14:16.514Z,7.71
2023-02-02T18:16:43.002Z,7.71
2023-02-02T18:19:10.576Z,7.67
2023-02-02T18:21:37.572Z,7.69
2023-02-02T18:24:04.594Z,7.70
2023-02-02T18:26:32.728Z,7.68
2023-02-02T18:28:59.534Z,7.70
2023-02-02T18:31:27.271Z,7.71
2023-02-02T18:33:54.469Z,7.72
2023-02-02T18:36:23.527Z,7.72
2023-02-02T18:38:51.426Z,7.73
2023-02-02T18:41:19.412Z,7.74
2023-02-02T18:43:45.898Z,7.74
2023-02-02T18:46:14.003Z,7.76
2023-02-02T18:48:42.060Z,7.78
2023-02-02T18:51:12.369Z,7.78
2023-02-02T18:53:38.946Z,7.79
2023-02-02T18:56:07.034Z,7.81
2023-02-02T18:58:34.867Z,7.78
2023-02-02T19:01:12.761Z,7.79
2023-02-02T19:03:40.411Z,7.77
2023-02-02T19:06:27.664Z,7.81
2023-02-02T19:08:55.122Z,7.80
2023-02-02T19:11:24.643Z,7.83
2023-02-02T19:13:51.157Z,7.85
2023-02-02T19:16:25.641Z,7.89
2023-02-02T19:19:00.427Z,7.88
2023-02-02T19:21:30.443Z,7.86
2023-02-02T19:23:59.482Z,7.84
2023-02-02T19:26:28.099Z,7.85
2023-02-02T19:28:59.871Z,7.85
2023-02-02T19:31:26.455Z,7.82
2023-02-02T19:33:53.205Z,7.81
2023-02-02T19:36:22.566Z,7.81
2023-02-02T19:39:04.910Z,7.80
2023-02-02T19:41:32.456Z,7.82
2023-02-02T19:44:01.399Z,7.80
2023-02-02T19:46:30.057Z,7.84
2023-02-02T19:49:11.784Z,7.81
2023-02-02T19:51:46.261Z,7.80
2023-02-02T19:54:49.685Z,7.79
2023-02-02T19:57:36.807Z,7.79
2023-02-02T20:00:20.756Z,7.77
2023-02-02T20:02:59.634Z,7.74
2023-02-02T20:05:29.637Z,7.76
2023-02-02T20:08:00.570Z,7.75
2023-02-02T20:10:36.998Z,7.76
2023-02-02T20:13:14.526Z,7.75
2023-02-02T20:15:41.038Z,7.71
2023-02-02T20:18:19.301Z,7.71
2023-02-02T20:20:50.150Z,7.78
2023-02-02T20:23:40.240Z,7.74
2023-02-02T20:26:34.116Z,7.73
2023-02-02T20:29:14.365Z,7.73
2023-02-02T20:31:41.153Z,7.76
2023-02-02T20:34:35.620Z,7.75
2023-02-02T20:37:15.824Z,7.75
2023-02-02T20:39:48.212Z,7.75
2023-02-02T20:42:15.402Z,7.77
2023-02-02T20:44:42.477Z,7.77
2023-02-02T20:47:09.309Z,7.79
2023-02-02T20:49:37.278Z,7.79
2023-02-02T20:52:08.169Z,7.79
2023-02-02T20:54:34.697Z,7.80
2023-02-02T20:57:02.360Z,7.78
2023-02-02T20:59:29.274Z,7.82
2023-02-02T21:01:55.913Z,7.85
2023-02-02T21:04:22.534Z,7.82
2023-02-02T21:06:49.652Z,7.82
2023-02-02T21:09:17.373Z,7.78
2023-02-02T21:11:44.339Z,7.80
2023-02-02T21:14:10.826Z,7.82
2023-02-02T21:16:37.359Z,7.77
2023-02-02T21:19:04.184Z,7.79
2023-02-02T21:21:30.696Z,7.79
2023-02-02T21:23:57.334Z,7.82
2023-02-02T21:26:27.292Z,7.80
2023-02-02T21:28:54.085Z,7.88
2023-02-02T21:31:20.759Z,7.94
2023-02-02T21:33:48.671Z,8.00
2023-02-02T21:36:30.166Z,8.07
2023-02-02T21:39:05.012Z,8.13
2023-02-02T21:41:32.323Z,8.15
2023-02-02T21:43:59.584Z,8.20
2023-02-02T21:46:33.510Z,8.17
2023-02-02T21:49:00.905Z,8.09
2023-02-02T21:51:34.219Z,8.07
2023-02-02T21:54:18.959Z,8.03
2023-02-02T21:56:45.591Z,8.04
2023-02-02T21:59:16.719Z,8.01
2023-02-02T22:01:44.067Z,8.02
2023-02-02T22:04:21.049Z,8.03
2023-02-02T22:06:52.832Z,8.02
2023-02-02T22:09:26.198Z,8.02
2023-02-02T22:11:55.455Z,8.04
2023-02-02T22:14:42.230Z,8.02
2023-02-02T22:17:39.636Z,8.04
2023-02-02T22:20:15.556Z,8.03
2023-02-02T22:22:45.279Z,8.06
2023-02-02T22:25:17.864Z,8.07
2023-02-02T22:27:53.997Z,8.06
2023-02-02T22:30:28.502Z,8.04
2023-02-02T22:32:55.586Z,8.05
2023-02-02T22:35:22.133Z,8.08
2023-02-02T22:37:49.141Z,8.09
2023-02-02T22:40:16.503Z,8.12
2023-02-02T22:42:43.733Z,8.11
2023-02-02T22:45:10.521Z,8.10
2023-02-02T22:47:37.160Z,8.11
2023-02-02T22:50:03.808Z,8.13
2023-02-02T22:52:30.299Z,8.13
2023-02-02T22:54:56.740Z,8.14
2023-02-02T22:57:23.363Z,8.15
2023-02-02T22:59:49.838Z,8.17
2023-02-02T23:02:16.723Z,8.17
2023-02-02T23:04:43.267Z,8.20
2023-02-02T23:07:09.757Z,8.23
2023-02-02T23:09:36.333Z,8.22
2023-02-02T23:12:02.809Z,8.22
2023-02-02T23:14:29.356Z,8.23
2023-02-02T23:16:55.899Z,8.24
2023-02-02T23:19:22.352Z,8.24
2023-02-02T23:21:48.817Z,8.27
2023-02-02T23:24:15.630Z,8.29
2023-02-02T23:26:42.082Z,8.32
2023-02-02T23:29:08.537Z,8.31
2023-02-02T23:31:35.099Z,8.31
2023-02-02T23:34:01.686Z,8.31
2023-02-02T23:36:28.380Z,8.28
2023-02-02T23:38:54.867Z,8.25
2023-02-02T23:41:22.043Z,8.27
2023-02-02T23:43:50.344Z,8.27
2023-02-02T23:46:17.679Z,8.28
2023-02-02T23:48:44.717Z,8.27
2023-02-02T23:51:12.074Z,8.28
2023-02-02T23:53:38.689Z,8.27
2023-02-02T23:56:05.465Z,8.27
2023-02-02T23:58:31.972Z,8.27
